createdAt,value
2024-03-05T00:00:12.047Z,101059.97
2024-03-05T00:00:45.652Z,101053.81
2024-03-05T00:01:21.093Z,101061.78
2024-03-05T00:01:35.521Z,101066.25
2024-03-05T00:01:48.555Z,101059.22
2024-03-05T00:02:01.727Z,101065.41
2024-03-05T00:02:14.824Z,101067.19
2024-03-05T00:02:27.904Z,101063.69
2024-03-05T00:02:41.519Z,101063.69
2024-03-05T00:02:54.511Z,101066.34
2024-03-05T00:03:08.734Z,101063.69
2024-03-05T00:03:21.786Z,101067.31
2024-03-05T00:03:34.820Z,101064.66
2024-03-05T00:03:47.768Z,101067.31
2024-03-05T00:04:01.192Z,101062.91
2024-03-05T00:04:14.623Z,101060.25
2024-03-05T00:04:27.995Z,101070.88
2024-03-05T00:04:42.340Z,101061.22
2024-03-05T00:04:55.534Z,101070.03
2024-03-05T00:05:09.972Z,101061.31
2024-03-05T00:05:23.004Z,101067.47
2024-03-05T00:05:36.285Z,101065.78
2024-03-05T00:05:49.340Z,101062.16
2024-03-05T00:06:02.428Z,101064.91
2024-03-05T00:06:15.416Z,101064.91
2024-03-05T00:06:30.373Z,101069.38
2024-03-05T00:06:44.398Z,101069.38
2024-03-05T00:06:57.405Z,101075.53
2024-03-05T00:07:11.114Z,101065.84
2024-03-05T00:07:24.159Z,101067.66
2024-03-05T00:07:37.835Z,101069.47
2024-03-05T00:07:52.488Z,101070.31
2024-03-05T00:08:06.639Z,101066.81
2024-03-05T00:08:19.633Z,101065.09
2024-03-05T00:08:32.618Z,101065.09
2024-03-05T00:08:45.599Z,101067.75
2024-03-05T00:09:00.160Z,101067.84
2024-03-05T00:09:13.393Z,101075.81
2024-03-05T00:09:26.961Z,101062.63
2024-03-05T00:09:40.044Z,101069.72
2024-03-05T00:09:52.977Z,101067.06
2024-03-05T00:10:06.850Z,101077.69
2024-03-05T00:10:20.225Z,101070.69
2024-03-05T00:10:34.289Z,101072.59
2024-03-05T00:10:47.751Z,101075.25
2024-03-05T00:11:01.326Z,101069.06
2024-03-05T00:11:14.486Z,101073.53
2024-03-05T00:11:27.906Z,101077.06
2024-03-05T00:11:40.978Z,101069.16
2024-03-05T00:11:54.144Z,101071.81
2024-03-05T00:12:07.979Z,101067.47
2024-03-05T00:12:22.077Z,101063.91
2024-03-05T00:12:35.540Z,101073.72
2024-03-05T00:12:48.522Z,101075.53
2024-03-05T00:13:01.534Z,101073.72
2024-03-05T00:13:14.645Z,101069.25
2024-03-05T00:13:27.752Z,101067.53
2024-03-05T00:13:40.801Z,101062.22
2024-03-05T00:13:54.028Z,101073.72
2024-03-05T00:14:07.092Z,101071.06
2024-03-05T00:14:20.993Z,101072.84
2024-03-05T00:14:34.986Z,101072.84
2024-03-05T00:14:47.975Z,101067.53
2024-03-05T00:15:01.271Z,101069.34
2024-03-05T00:15:14.277Z,101069.34
2024-03-05T00:15:28.201Z,101064.97
2024-03-05T00:15:41.416Z,101072.84
2024-03-05T00:15:54.542Z,101074.66
2024-03-05T00:16:11.632Z,101077.34
2024-03-05T00:16:28.639Z,101079.03
2024-03-05T00:16:41.719Z,101072.00
2024-03-05T00:16:55.063Z,101076.44
2024-03-05T00:17:08.111Z,101076.44
2024-03-05T00:17:21.067Z,101070.28
2024-03-05T00:17:34.090Z,101072.00
2024-03-05T00:17:47.121Z,101077.34
2024-03-05T00:18:01.197Z,101071.13
2024-03-05T00:18:14.248Z,101070.28
2024-03-05T00:18:27.336Z,101072.94
2024-03-05T00:18:40.485Z,101075.59
2024-03-05T00:18:53.500Z,101084.44
2024-03-05T00:19:07.581Z,101083.56
2024-03-05T00:19:20.690Z,101076.44
2024-03-05T00:19:33.782Z,101083.56
2024-03-05T00:19:47.523Z,101080.91
2024-03-05T00:20:02.197Z,101075.59
2024-03-05T00:20:20.192Z,101069.44
2024-03-05T00:20:33.846Z,101077.41
2024-03-05T00:20:47.505Z,101071.31
2024-03-05T00:21:00.477Z,101084.53
2024-03-05T00:21:13.520Z,101076.56
2024-03-05T00:21:26.461Z,101073.03
2024-03-05T00:21:39.561Z,101080.16
2024-03-05T00:21:53.886Z,101078.34
2024-03-05T00:22:07.346Z,101073.03
2024-03-05T00:22:20.734Z,101081.88
2024-03-05T00:22:34.243Z,101073.91
2024-03-05T00:22:47.871Z,101080.16
2024-03-05T00:23:01.117Z,101069.53
2024-03-05T00:23:14.273Z,101077.50
2024-03-05T00:23:27.637Z,101072.19
2024-03-05T00:23:40.974Z,101077.50
2024-03-05T00:23:54.911Z,101075.69
2024-03-05T00:24:07.905Z,101072.19
2024-03-05T00:24:20.867Z,101076.66
2024-03-05T00:24:33.831Z,101075.78
2024-03-05T00:24:46.852Z,101077.50
2024-03-05T00:25:00.128Z,101080.16
2024-03-05T00:25:13.593Z,101077.59
2024-03-05T00:25:28.394Z,101074.94
2024-03-05T00:25:41.510Z,101069.63
2024-03-05T00:25:54.664Z,101074.94
2024-03-05T00:26:08.001Z,101069.63
2024-03-05T00:26:22.898Z,101066.97
2024-03-05T00:26:36.325Z,101076.72
2024-03-05T00:26:49.381Z,101064.31
2024-03-05T00:27:02.617Z,101073.13
2024-03-05T00:27:15.556Z,101075.78
2024-03-05T00:27:29.579Z,101075.78
2024-03-05T00:27:42.544Z,101070.47
2024-03-05T00:27:55.956Z,101071.31
2024-03-05T00:28:09.243Z,101070.47
2024-03-05T00:28:22.276Z,101079.22
2024-03-05T00:28:35.815Z,101066.84
2024-03-05T00:28:48.876Z,101068.75
2024-03-05T00:29:03.726Z,101072.19
2024-03-05T00:29:17.824Z,101069.63
2024-03-05T00:29:30.841Z,101070.47
2024-03-05T00:29:43.781Z,101065.16
2024-03-05T00:29:56.799Z,101070.47
2024-03-05T00:30:13.365Z,101075.78
2024-03-05T00:30:26.384Z,101075.78
2024-03-05T00:30:39.792Z,101070.47
2024-03-05T00:30:52.789Z,101067.81
2024-03-05T00:31:06.791Z,101065.16
2024-03-05T00:31:20.622Z,101072.28
2024-03-05T00:31:35.461Z,101075.78
2024-03-05T00:31:48.504Z,101068.75
2024-03-05T00:32:01.631Z,101072.38
2024-03-05T00:32:14.696Z,101078.53
2024-03-05T00:32:27.760Z,101076.72
2024-03-05T00:32:41.189Z,101077.69
2024-03-05T00:32:54.391Z,101066.22
2024-03-05T00:33:08.721Z,101075.13
2024-03-05T00:33:21.734Z,101075.13
2024-03-05T00:33:34.821Z,101075.97
2024-03-05T00:33:47.944Z,101075.13
2024-03-05T00:34:00.999Z,101071.59
2024-03-05T00:34:14.731Z,101072.53
2024-03-05T00:34:27.823Z,101077.84
2024-03-05T00:34:40.818Z,101075.19
2024-03-05T00:34:53.906Z,101077.84
2024-03-05T00:35:08.951Z,101077.84
2024-03-05T00:35:22.110Z,101073.50
2024-03-05T00:35:35.462Z,101074.44
2024-03-05T00:35:48.580Z,101077.97
2024-03-05T00:36:01.708Z,101074.44
2024-03-05T00:36:15.049Z,101078.81
2024-03-05T00:36:28.778Z,101079.75
2024-03-05T00:36:42.735Z,101079.75
2024-03-05T00:36:55.726Z,101077.19
2024-03-05T00:37:08.884Z,101071.75
2024-03-05T00:37:22.140Z,101081.66
2024-03-05T00:37:37.208Z,101074.53
2024-03-05T00:37:51.059Z,101083.44
2024-03-05T00:38:09.277Z,101074.63
2024-03-05T00:38:33.447Z,101073.69
2024-03-05T00:38:47.996Z,101072.81
2024-03-05T00:39:01.451Z,101079.94
2024-03-05T00:39:14.467Z,101082.59
2024-03-05T00:39:27.450Z,101079.09
2024-03-05T00:39:40.430Z,101078.25
2024-03-05T00:39:53.460Z,101077.28
2024-03-05T00:40:10.047Z,101079.09
2024-03-05T00:40:24.258Z,101079.09
2024-03-05T00:40:37.264Z,101082.69
2024-03-05T00:40:50.390Z,101071.19
2024-03-05T00:41:03.486Z,101077.34
2024-03-05T00:41:18.347Z,101073.84
2024-03-05T00:41:31.490Z,101077.34
2024-03-05T00:41:44.786Z,101082.69
2024-03-05T00:41:57.828Z,101075.66
2024-03-05T00:42:11.915Z,101080.97
2024-03-05T00:42:24.897Z,101082.69
2024-03-05T00:42:38.475Z,101080.91
2024-03-05T00:42:51.502Z,101083.63
2024-03-05T00:43:04.916Z,101078.31
2024-03-05T00:43:17.960Z,101079.16
2024-03-05T00:43:31.178Z,101083.63
2024-03-05T00:43:44.509Z,101080.00
2024-03-05T00:43:58.588Z,101080.00
2024-03-05T00:44:12.367Z,101076.50
2024-03-05T00:44:25.363Z,101088.88
2024-03-05T00:44:38.546Z,101081.81
2024-03-05T00:44:51.557Z,101088.00
2024-03-05T00:45:08.650Z,101083.63
2024-03-05T00:45:23.121Z,101081.91
2024-03-05T00:45:36.936Z,101079.25
2024-03-05T00:45:51.626Z,101080.13
2024-03-05T00:46:04.850Z,101085.44
2024-03-05T00:46:18.142Z,101081.91
2024-03-05T00:46:31.395Z,101082.78
2024-03-05T00:46:45.791Z,101084.56
2024-03-05T00:46:58.740Z,101082.78
2024-03-05T00:47:11.758Z,101085.44
2024-03-05T00:47:24.782Z,101094.28
2024-03-05T00:47:39.188Z,101080.13
2024-03-05T00:47:52.841Z,101080.13
2024-03-05T00:48:07.116Z,101080.13
2024-03-05T00:48:20.581Z,101083.72
2024-03-05T00:48:33.644Z,101081.06
2024-03-05T00:48:46.966Z,101085.44
2024-03-05T00:48:59.941Z,101086.28
2024-03-05T00:49:13.917Z,101088.09
2024-03-05T00:49:28.282Z,101082.78
2024-03-05T00:49:41.370Z,101083.63
2024-03-05T00:49:56.626Z,101088.94
2024-03-05T00:50:14.323Z,101088.09
2024-03-05T00:50:27.338Z,101084.50
2024-03-05T00:50:41.118Z,101087.16
2024-03-05T00:50:54.150Z,101086.28
2024-03-05T00:51:09.945Z,101089.81
2024-03-05T00:51:24.649Z,101084.50
2024-03-05T00:51:37.542Z,101085.34
2024-03-05T00:51:50.839Z,101082.78
2024-03-05T00:52:04.663Z,101079.25
2024-03-05T00:52:17.603Z,101084.56
2024-03-05T00:52:31.766Z,101082.88
2024-03-05T00:52:44.922Z,101079.38
2024-03-05T00:52:57.906Z,101082.03
2024-03-05T00:53:12.095Z,101081.13
2024-03-05T00:53:25.103Z,101084.69
2024-03-05T00:53:38.245Z,101082.09
2024-03-05T00:53:52.209Z,101081.13
2024-03-05T00:54:05.245Z,101091.78
2024-03-05T00:54:18.212Z,101083.91
2024-03-05T00:54:31.253Z,101079.44
2024-03-05T00:54:44.252Z,101082.09
2024-03-05T00:54:58.570Z,101085.59
2024-03-05T00:55:11.607Z,101088.25
2024-03-05T00:55:25.751Z,101085.59
2024-03-05T00:55:38.947Z,101090.06
2024-03-05T00:55:52.346Z,101085.59
2024-03-05T00:56:06.829Z,101081.25
2024-03-05T00:56:19.941Z,101081.25
2024-03-05T00:56:32.919Z,101083.91
2024-03-05T00:56:45.972Z,101074.97
2024-03-05T00:56:58.968Z,101090.94
2024-03-05T00:57:13.045Z,101085.59
2024-03-05T00:57:27.066Z,101085.59
2024-03-05T00:57:40.211Z,101079.44
2024-03-05T00:57:53.585Z,101080.28
2024-03-05T00:58:08.766Z,101087.34
2024-03-05T00:58:22.191Z,101077.63
2024-03-05T00:58:35.250Z,101080.28
2024-03-05T00:58:48.560Z,101088.25
2024-03-05T00:59:01.684Z,101082.03
2024-03-05T00:59:14.757Z,101087.34
2024-03-05T00:59:29.220Z,101088.19
2024-03-05T00:59:42.194Z,101079.38
2024-03-05T00:59:55.175Z,101080.22
2024-03-05T01:00:09.636Z,101087.34
2024-03-05T01:00:25.522Z,101076.72
2024-03-05T01:00:38.541Z,101081.13
2024-03-05T01:00:51.565Z,101081.13
2024-03-05T01:01:05.681Z,101081.13
2024-03-05T01:01:19.867Z,101087.34
2024-03-05T01:01:32.979Z,101085.53
2024-03-05T01:01:47.457Z,101089.03
2024-03-05T01:02:03.013Z,101084.56
2024-03-05T01:02:16.959Z,101088.19
2024-03-05T01:02:30.154Z,101086.38
2024-03-05T01:02:43.219Z,101089.03
2024-03-05T01:02:57.293Z,101089.03
2024-03-05T01:03:11.813Z,101089.03
2024-03-05T01:03:24.933Z,101093.41
2024-03-05T01:03:38.981Z,101091.59
2024-03-05T01:03:51.955Z,101087.16
2024-03-05T01:04:06.266Z,101085.44
2024-03-05T01:04:20.027Z,101083.63
2024-03-05T01:04:32.967Z,101092.47
2024-03-05T01:04:46.930Z,101086.28
2024-03-05T01:05:00.166Z,101086.28
2024-03-05T01:05:13.826Z,101086.28
2024-03-05T01:05:26.830Z,101088.88
2024-03-05T01:05:39.776Z,101083.56
2024-03-05T01:05:52.665Z,101083.56
2024-03-05T01:06:07.386Z,101091.53
2024-03-05T01:06:20.380Z,101088.88
2024-03-05T01:06:33.593Z,101088.88
2024-03-05T01:06:47.547Z,101094.19
2024-03-05T01:07:00.501Z,101088.00
2024-03-05T01:07:13.437Z,101090.56
2024-03-05T01:07:26.455Z,101083.56
2024-03-05T01:07:39.823Z,101084.41
2024-03-05T01:07:52.849Z,101085.25
2024-03-05T01:08:06.280Z,101094.19
2024-03-05T01:08:19.303Z,101089.72
2024-03-05T01:08:32.284Z,101082.59
2024-03-05T01:08:46.255Z,101080.78
2024-03-05T01:08:59.141Z,101090.56
2024-03-05T01:09:17.125Z,101086.09
2024-03-05T01:09:31.904Z,101085.25
2024-03-05T01:09:44.850Z,101083.44
2024-03-05T01:09:57.827Z,101083.56
2024-03-05T01:10:11.435Z,101079.94
2024-03-05T01:10:24.428Z,101086.09
2024-03-05T01:10:37.599Z,101083.44
2024-03-05T01:10:50.659Z,101084.31
2024-03-05T01:11:04.904Z,101089.63
2024-03-05T01:11:17.897Z,101087.84
2024-03-05T01:11:31.648Z,101086.03
2024-03-05T01:11:44.666Z,101078.03
2024-03-05T01:11:57.894Z,101082.50
2024-03-05T01:12:11.212Z,101089.53
2024-03-05T01:12:24.195Z,101083.38
2024-03-05T01:12:37.390Z,101087.72
2024-03-05T01:12:51.445Z,101083.38
2024-03-05T01:13:04.697Z,101089.53
2024-03-05T01:13:20.935Z,101083.38
2024-03-05T01:13:35.203Z,101081.56
2024-03-05T01:13:48.557Z,101084.22
2024-03-05T01:14:01.737Z,101087.72
2024-03-05T01:14:15.801Z,101083.38
2024-03-05T01:14:29.801Z,101079.75
2024-03-05T01:14:43.279Z,101084.22
2024-03-05T01:14:56.390Z,101082.41
2024-03-05T01:15:10.128Z,101082.41
2024-03-05T01:15:23.100Z,101090.38
2024-03-05T01:15:36.157Z,101081.47
2024-03-05T01:15:49.183Z,101082.41
2024-03-05T01:16:02.189Z,101081.56
2024-03-05T01:16:15.366Z,101081.47
2024-03-05T01:16:29.531Z,101085.94
2024-03-05T01:16:42.898Z,101080.63
2024-03-05T01:16:57.387Z,101084.13
2024-03-05T01:17:12.792Z,101077.09
2024-03-05T01:17:28.222Z,101079.75
2024-03-05T01:17:41.272Z,101083.38
2024-03-05T01:17:54.793Z,101082.41
2024-03-05T01:18:08.005Z,101082.41
2024-03-05T01:18:21.800Z,101082.41
2024-03-05T01:18:35.795Z,101085.06
2024-03-05T01:18:48.854Z,101085.06
2024-03-05T01:19:01.940Z,101077.09
2024-03-05T01:19:15.132Z,101083.38
2024-03-05T01:19:28.118Z,101076.22
2024-03-05T01:19:41.354Z,101084.22
2024-03-05T01:19:54.808Z,101078.03
2024-03-05T01:20:17.166Z,101080.69
2024-03-05T01:20:30.514Z,101084.22
2024-03-05T01:20:44.620Z,101079.75
2024-03-05T01:20:57.883Z,101080.69
2024-03-05T01:21:10.846Z,101079.75
2024-03-05T01:21:23.769Z,101079.75
2024-03-05T01:21:36.680Z,101082.41
2024-03-05T01:21:49.637Z,101074.44
2024-03-05T01:22:02.838Z,101075.31
2024-03-05T01:22:15.862Z,101079.75
2024-03-05T01:22:28.948Z,101080.63
2024-03-05T01:22:41.966Z,101078.81
2024-03-05T01:22:56.017Z,101074.44
2024-03-05T01:23:11.402Z,101081.47
2024-03-05T01:23:25.503Z,101078.81
2024-03-05T01:23:39.516Z,101075.31
2024-03-05T01:23:52.694Z,101081.47
2024-03-05T01:24:08.273Z,101081.47
2024-03-05T01:24:21.529Z,101077.00
2024-03-05T01:24:34.794Z,101082.31
2024-03-05T01:24:48.740Z,101077.00
2024-03-05T01:25:02.812Z,101076.16
2024-03-05T01:25:18.432Z,101080.50
2024-03-05T01:25:31.781Z,101079.66
2024-03-05T01:25:45.054Z,101083.16
2024-03-05T01:26:00.073Z,101077.84
2024-03-05T01:26:13.741Z,101079.59
2024-03-05T01:26:26.699Z,101084.06
2024-03-05T01:26:40.282Z,101079.59
2024-03-05T01:26:54.817Z,101079.59
2024-03-05T01:27:07.858Z,101073.41
2024-03-05T01:27:21.608Z,101080.44
2024-03-05T01:27:34.858Z,101081.28
2024-03-05T01:27:47.815Z,101081.28
2024-03-05T01:28:01.113Z,101078.63
2024-03-05T01:28:16.441Z,101082.16
2024-03-05T01:28:29.587Z,101081.28
2024-03-05T01:28:42.942Z,101080.34
2024-03-05T01:28:57.852Z,101082.16
2024-03-05T01:29:13.522Z,101079.50
2024-03-05T01:29:26.545Z,101081.19
2024-03-05T01:29:41.767Z,101083.00
2024-03-05T01:29:54.812Z,101079.50
2024-03-05T01:30:12.015Z,101076.84
2024-03-05T01:30:25.008Z,101073.31
2024-03-05T01:30:41.371Z,101077.69
2024-03-05T01:30:54.351Z,101077.69
2024-03-05T01:31:13.274Z,101079.50
2024-03-05T01:31:27.584Z,101080.34
2024-03-05T01:31:40.663Z,101080.34
2024-03-05T01:31:58.120Z,101079.50
2024-03-05T01:32:14.248Z,101078.53
2024-03-05T01:32:29.826Z,101078.53
2024-03-05T01:32:44.989Z,101084.69
2024-03-05T01:32:58.502Z,101075.88
2024-03-05T01:33:21.010Z,101082.03
2024-03-05T01:33:37.388Z,101079.38
2024-03-05T01:33:50.858Z,101078.53
2024-03-05T01:34:04.594Z,101085.59
2024-03-05T01:34:17.562Z,101083.78
2024-03-05T01:34:30.696Z,101081.13
2024-03-05T01:34:44.661Z,101079.38
2024-03-05T01:34:58.206Z,101074.00
2024-03-05T01:35:12.534Z,101076.66
2024-03-05T01:35:27.018Z,101082.81
2024-03-05T01:35:42.358Z,101081.97
2024-03-05T01:35:55.531Z,101081.88
2024-03-05T01:36:11.784Z,101086.31
2024-03-05T01:36:26.568Z,101086.31
2024-03-05T01:36:39.801Z,101081.88
2024-03-05T01:36:58.326Z,101080.06
2024-03-05T01:37:12.152Z,101079.22
2024-03-05T01:37:25.202Z,101078.34
2024-03-05T01:37:39.333Z,101084.53
2024-03-05T01:37:52.780Z,101079.22
2024-03-05T01:38:05.731Z,101085.38
2024-03-05T01:38:18.713Z,101082.72
2024-03-05T01:38:31.844Z,101080.06
2024-03-05T01:38:44.778Z,101081.88
2024-03-05T01:38:58.025Z,101080.91
2024-03-05T01:39:10.943Z,101071.25
2024-03-05T01:39:25.813Z,101083.66
2024-03-05T01:39:39.058Z,101080.06
2024-03-05T01:39:53.010Z,101079.22
2024-03-05T01:40:07.352Z,101074.75
2024-03-05T01:40:20.974Z,101075.59
2024-03-05T01:40:33.947Z,101075.59
2024-03-05T01:40:47.006Z,101075.59
2024-03-05T01:40:59.970Z,101080.00
2024-03-05T01:41:13.009Z,101077.34
2024-03-05T01:41:26.033Z,101076.44
2024-03-05T01:41:39.198Z,101084.34
2024-03-05T01:41:53.743Z,101078.19
2024-03-05T01:42:08.711Z,101081.69
2024-03-05T01:42:22.443Z,101078.09
2024-03-05T01:42:35.433Z,101081.69
2024-03-05T01:42:48.359Z,101073.72
2024-03-05T01:43:01.304Z,101084.25
2024-03-05T01:43:14.244Z,101077.22
2024-03-05T01:43:27.305Z,101073.72
2024-03-05T01:43:41.934Z,101080.75
2024-03-05T01:43:56.030Z,101075.44
2024-03-05T01:44:09.042Z,101078.09
2024-03-05T01:44:22.285Z,101074.56
2024-03-05T01:44:35.392Z,101078.94
2024-03-05T01:44:48.820Z,101072.78
2024-03-05T01:45:01.836Z,101079.78
2024-03-05T01:45:14.801Z,101082.44
2024-03-05T01:45:27.745Z,101078.94
2024-03-05T01:45:40.735Z,101080.63
2024-03-05T01:45:55.329Z,101074.38
2024-03-05T01:46:15.283Z,101082.44
2024-03-05T01:46:29.711Z,101078.88
2024-03-05T01:46:42.692Z,101076.22
2024-03-05T01:46:57.792Z,101077.97
2024-03-05T01:47:12.596Z,101075.31
2024-03-05T01:47:25.923Z,101077.13
2024-03-05T01:47:39.366Z,101079.72
2024-03-05T01:47:53.772Z,101083.22
2024-03-05T01:48:07.352Z,101083.22
2024-03-05T01:48:22.621Z,101076.09
2024-03-05T01:48:35.624Z,101078.75
2024-03-05T01:48:48.994Z,101084.91
2024-03-05T01:49:02.172Z,101078.75
2024-03-05T01:49:15.834Z,101087.56
2024-03-05T01:49:30.541Z,101079.59
2024-03-05T01:49:43.617Z,101078.75
2024-03-05T01:49:56.909Z,101076.84
2024-03-05T01:50:11.877Z,101083.97
2024-03-05T01:50:25.116Z,101078.66
2024-03-05T01:50:38.607Z,101078.66
2024-03-05T01:50:51.900Z,101078.66
2024-03-05T01:51:06.554Z,101081.31
2024-03-05T01:51:21.073Z,101083.97
2024-03-05T01:51:34.180Z,101079.50
2024-03-05T01:51:47.328Z,101083.03
2024-03-05T01:52:02.295Z,101079.50
2024-03-05T01:52:16.405Z,101078.66
2024-03-05T01:52:29.822Z,101076.84
2024-03-05T01:52:45.180Z,101079.50
2024-03-05T01:52:58.736Z,101072.38
2024-03-05T01:53:15.853Z,101080.38
2024-03-05T01:53:29.199Z,101074.19
2024-03-05T01:53:43.387Z,101079.50
2024-03-05T01:53:56.358Z,101073.25
2024-03-05T01:54:10.342Z,101077.69
2024-03-05T01:54:25.166Z,101085.69
2024-03-05T01:54:38.267Z,101072.38
2024-03-05T01:54:52.525Z,101078.59
2024-03-05T01:55:11.379Z,101075.03
2024-03-05T01:55:26.089Z,101073.34
2024-03-05T01:55:40.578Z,101073.34
2024-03-05T01:55:55.159Z,101072.38
2024-03-05T01:56:08.523Z,101071.53
2024-03-05T01:56:23.504Z,101069.72
2024-03-05T01:56:36.870Z,101072.38
2024-03-05T01:56:53.805Z,101077.69
2024-03-05T01:57:07.235Z,101068.97
2024-03-05T01:57:22.810Z,101080.28
2024-03-05T01:57:36.209Z,101077.69
2024-03-05T01:57:52.357Z,101067.94
2024-03-05T01:58:07.631Z,101068.78
2024-03-05T01:58:22.119Z,101076.78
2024-03-05T01:58:35.710Z,101073.25
2024-03-05T01:58:48.669Z,101072.31
2024-03-05T01:59:02.965Z,101075.81
2024-03-05T01:59:16.838Z,101072.31
2024-03-05T01:59:30.316Z,101074.03
2024-03-05T01:59:43.385Z,101071.38
2024-03-05T01:59:56.964Z,101075.81
2024-03-05T02:00:12.371Z,101077.53
2024-03-05T02:00:27.631Z,101077.53
2024-03-05T02:00:40.687Z,101073.16
2024-03-05T02:00:53.991Z,101071.38
2024-03-05T02:01:11.825Z,101072.22
2024-03-05T02:01:26.216Z,101066.91
2024-03-05T02:01:39.412Z,101066.91
2024-03-05T02:01:53.825Z,101070.41
2024-03-05T02:02:07.536Z,101076.56
2024-03-05T02:02:24.488Z,101077.47
2024-03-05T02:02:37.983Z,101070.41
2024-03-05T02:02:51.816Z,101072.13
2024-03-05T02:03:05.530Z,101068.59
2024-03-05T02:03:18.965Z,101068.59
2024-03-05T02:03:33.401Z,101073.91
2024-03-05T02:03:46.880Z,101067.75
2024-03-05T02:04:00.385Z,101080.19
2024-03-05T02:04:14.779Z,101075.72
2024-03-05T02:04:28.924Z,101066.91
2024-03-05T02:04:44.104Z,101069.56
2024-03-05T02:04:58.485Z,101073.16
2024-03-05T02:05:13.953Z,101072.31
2024-03-05T02:05:26.997Z,101070.50
2024-03-05T02:05:42.496Z,101073.16
2024-03-05T02:06:00.959Z,101075.81
2024-03-05T02:06:16.149Z,101069.66
2024-03-05T02:06:32.387Z,101073.16
2024-03-05T02:06:46.332Z,101072.31
2024-03-05T02:07:03.552Z,101073.16
2024-03-05T02:07:19.025Z,101072.31
2024-03-05T02:07:33.758Z,101071.47
2024-03-05T02:07:47.467Z,101065.28
2024-03-05T02:08:00.605Z,101070.50
2024-03-05T02:08:17.965Z,101066.97
2024-03-05T02:08:32.713Z,101067.84
2024-03-05T02:08:45.683Z,101072.31
2024-03-05T02:09:01.028Z,101068.78
2024-03-05T02:09:14.019Z,101076.78
2024-03-05T02:09:27.011Z,101067.84
2024-03-05T02:09:40.369Z,101072.31
2024-03-05T02:09:55.359Z,101072.31
2024-03-05T02:10:09.740Z,101071.47
2024-03-05T02:10:23.905Z,101069.66
2024-03-05T02:10:36.961Z,101067.84
2024-03-05T02:10:50.061Z,101062.50
2024-03-05T02:11:03.192Z,101073.16
2024-03-05T02:11:16.673Z,101063.41
2024-03-05T02:11:33.387Z,101066.06
2024-03-05T02:11:52.911Z,101069.56
2024-03-05T02:12:13.000Z,101072.22
2024-03-05T02:12:26.152Z,101069.56
2024-03-05T02:12:39.166Z,101069.56
2024-03-05T02:12:52.151Z,101068.72
2024-03-05T02:13:05.373Z,101066.91
2024-03-05T02:13:18.511Z,101074.88
2024-03-05T02:13:32.853Z,101067.75
2024-03-05T02:13:45.972Z,101065.94
2024-03-05T02:14:00.231Z,101070.41
2024-03-05T02:14:13.467Z,101070.31
2024-03-05T02:14:27.943Z,101068.59
2024-03-05T02:14:42.016Z,101066.81
2024-03-05T02:14:55.404Z,101073.84
2024-03-05T02:15:12.571Z,101072.97
2024-03-05T02:15:25.796Z,101066.81
2024-03-05T02:15:38.955Z,101068.50
2024-03-05T02:15:53.120Z,101061.38
2024-03-05T02:16:09.872Z,101061.38
2024-03-05T02:16:22.967Z,101077.34
2024-03-05T02:16:36.072Z,101069.38
2024-03-05T02:16:49.627Z,101070.31
2024-03-05T02:17:02.987Z,101064.03
2024-03-05T02:17:18.060Z,101069.38
2024-03-05T02:17:32.828Z,101066.81
2024-03-05T02:17:45.815Z,101072.88
2024-03-05T02:17:58.840Z,101069.38
2024-03-05T02:18:13.406Z,101072.03
2024-03-05T02:18:27.507Z,101071.19
2024-03-05T02:18:40.537Z,101068.44
2024-03-05T02:18:53.527Z,101067.56
2024-03-05T02:19:06.512Z,101067.56
2024-03-05T02:19:19.553Z,101060.44
2024-03-05T02:19:32.858Z,101067.56
2024-03-05T02:19:49.608Z,101070.22
2024-03-05T02:20:02.790Z,101064.91
2024-03-05T02:20:15.857Z,101069.38
2024-03-05T02:20:31.053Z,101064.03
2024-03-05T02:20:45.123Z,101069.38
2024-03-05T02:21:02.195Z,101069.38
2024-03-05T02:21:20.789Z,101065.84
2024-03-05T02:21:33.790Z,101069.38
2024-03-05T02:21:47.434Z,101066.69
2024-03-05T02:22:04.325Z,101067.56
2024-03-05T02:22:17.833Z,101068.50
2024-03-05T02:22:32.143Z,101065.84
2024-03-05T02:22:47.589Z,101066.69
2024-03-05T02:23:00.855Z,101066.69
2024-03-05T02:23:13.822Z,101069.38
2024-03-05T02:23:26.802Z,101065.84
2024-03-05T02:23:39.733Z,101072.03
2024-03-05T02:23:52.676Z,101067.56
2024-03-05T02:24:07.296Z,101072.97
2024-03-05T02:24:20.279Z,101069.38
2024-03-05T02:24:33.410Z,101066.69
2024-03-05T02:24:46.369Z,101065.84
2024-03-05T02:24:59.416Z,101064.03
2024-03-05T02:25:13.290Z,101072.03
2024-03-05T02:25:27.837Z,101066.69
2024-03-05T02:25:41.834Z,101066.69
2024-03-05T02:25:56.417Z,101069.38
2024-03-05T02:26:09.781Z,101066.69
2024-03-05T02:26:25.124Z,101064.03
2024-03-05T02:26:38.631Z,101067.56
2024-03-05T02:26:51.949Z,101072.88
2024-03-05T02:27:11.899Z,101069.38
2024-03-05T02:27:34.057Z,101069.38
2024-03-05T02:27:50.789Z,101069.38
2024-03-05T02:28:05.512Z,101072.97
2024-03-05T02:28:19.154Z,101070.31
2024-03-05T02:28:33.259Z,101067.66
2024-03-05T02:28:48.952Z,101067.66
2024-03-05T02:29:03.291Z,101072.97
2024-03-05T02:29:16.309Z,101067.66
2024-03-05T02:29:30.199Z,101071.19
2024-03-05T02:29:44.074Z,101067.66
2024-03-05T02:29:57.158Z,101065.00
2024-03-05T02:30:12.139Z,101070.31
2024-03-05T02:30:26.125Z,101068.50
2024-03-05T02:30:41.628Z,101069.38
2024-03-05T02:30:54.824Z,101067.66
2024-03-05T02:31:11.042Z,101073.84
2024-03-05T02:31:24.500Z,101072.03
2024-03-05T02:31:37.804Z,101068.50
2024-03-05T02:31:51.959Z,101069.38
2024-03-05T02:32:05.515Z,101065.84
2024-03-05T02:32:18.494Z,101072.03
2024-03-05T02:32:32.188Z,101070.22
2024-03-05T02:32:45.481Z,101065.84
2024-03-05T02:33:00.512Z,101069.38
2024-03-05T02:33:14.706Z,101067.56
2024-03-05T02:33:27.902Z,101068.50
2024-03-05T02:33:43.452Z,101069.38
2024-03-05T02:33:56.920Z,101073.75
2024-03-05T02:34:09.995Z,101069.38
2024-03-05T02:34:23.017Z,101066.63
2024-03-05T02:34:35.978Z,101066.69
2024-03-05T02:34:50.470Z,101069.28
2024-03-05T02:35:03.560Z,101071.09
2024-03-05T02:35:16.672Z,101069.38
2024-03-05T02:35:30.646Z,101070.13
2024-03-05T02:35:45.630Z,101072.78
2024-03-05T02:35:59.693Z,101065.78
2024-03-05T02:36:14.063Z,101069.28
2024-03-05T02:36:27.623Z,101072.78
2024-03-05T02:36:40.540Z,101073.63
2024-03-05T02:36:53.503Z,101070.97
2024-03-05T02:37:06.697Z,101067.47
2024-03-05T02:37:19.707Z,101074.50
2024-03-05T02:37:34.347Z,101064.81
2024-03-05T02:37:47.358Z,101075.38
2024-03-05T02:38:00.571Z,101067.47
2024-03-05T02:38:13.850Z,101069.28
2024-03-05T02:38:26.769Z,101071.09
2024-03-05T02:38:39.685Z,101069.28
2024-03-05T02:38:52.653Z,101074.59
2024-03-05T02:39:08.589Z,101072.78
2024-03-05T02:39:24.409Z,101069.28